M I D A S
Marine Information and Data Acquisition System
Tripno 972 of the Zeeleeuw from 2005-10-17 06:25:46 to 2005-10-17 15:25:52
Back to CruiseResearch ActivitiesStationsMapUnderway DataData graphs

EquipmentUnitsComment
TimeDGPSUTC
LatitudeDGPSDM.mWGS84
LongitudeDGPSDM.mWGS84
TemperatureSBE03/SBE38deg celciusITS90
ConductivitySBE21S/mITS90
SalinitySBE21 Practical Salinity Units
ChlorophylAChelsea fluorimeterg/lCalibrated in Aceton
Missing or incorrect values are displayed as -999
Sea surface data collected by the RV Zeeleeuw from 2005-10-17 06:28:52 to 2005-10-17 15:35:43
Time Latitude Longitude Temperature Conductivity Salinity ChlorophylA
2005-10-17 06:29:58 51°13.62 2°56.034 -999 0.076195 0.435464 -1.219471
2005-10-17 06:30:58 51°13.645 2°55.943 -999 0.076195 0.435504 -1.219471
2005-10-17 06:31:58 51°13.679 2°55.848 -999 0.076195 0.435545 -1.219471
2005-10-17 06:32:58 51°13.697 2°55.746 -999 0.076195 0.435602 -1.219471
2005-10-17 06:33:58 51°13.716 2°55.753 -999 0.076195 0.435545 -1.219471
2005-10-17 06:34:58 51°13.769 2°55.712 -999 0.076092 0.435107 -1.219471
2005-10-17 06:35:58 51°13.863 2°55.601 -999 0.076092 0.435074 -1.219471
2005-10-17 06:36:57 51°13.998 2°55.506 -999 2.17761 15.502926 -1.253181
2005-10-17 06:37:58 51°14.148 2°55.396 -999 3.806174 29.889046 -1.28689
2005-10-17 06:38:58 51°14.282 2°55.217 -999 3.747847 29.523765 -1.28689
2005-10-17 06:39:57 51°14.393 2°54.988 -999 3.780172 29.87463 -1.28689
2005-10-17 06:40:56 51°14.53 2°54.764 -999 3.872183 30.758995 -1.253181
2005-10-17 06:41:56 51°14.713 2°54.614 -999 3.959133 31.484962 -1.219471
2005-10-17 06:42:58 51°14.915 2°54.52 -999 3.985978 31.713657 -1.253181
2005-10-17 06:43:58 51°15.103 2°54.414 -999 3.999764 31.836592 -1.253181
2005-10-17 06:44:58 51°15.294 2°54.34 -999 4.000904 31.850034 -1.253181
2005-10-17 06:45:56 51°15.478 2°54.229 -999 3.994685 31.794856 -1.253181
2005-10-17 06:46:56 51°15.679 2°54.177 -999 3.995203 31.793477 -1.219471
2005-10-17 06:47:56 51°15.878 2°54.147 -999 3.992404 31.776619 -1.253181
2005-10-17 06:48:56 51°16.018 2°54.203 -999 3.998934 31.813955 -1.253181
2005-10-17 06:49:56 51°16.139 2°54.228 -999 3.991782 31.739283 -1.219471
2005-10-17 06:50:57 51°16.215 2°54.265 -999 3.992611 31.739348 -1.185762
2005-10-17 06:51:56 51°16.231 2°54.281 -999 3.991471 31.720646 -1.152053
2005-10-17 06:52:58 51°16.239 2°54.273 -999 3.991989 31.719945 -1.152053
2005-10-17 06:53:58 51°16.24 2°54.256 -999 3.990434 31.705516 -1.152053
2005-10-17 06:54:56 51°16.236 2°54.234 -999 3.989605 31.698173 -1.152053
2005-10-17 06:55:56 51°16.229 2°54.206 -999 3.989708 31.699091 -1.152053
2005-10-17 06:56:56 51°16.221 2°54.175 -999 3.989294 31.694759 -1.152053
2005-10-17 06:57:56 51°16.21 2°54.14 -999 3.989087 31.692263 -1.152053
2005-10-17 06:58:58 51°16.197 2°54.103 -999 3.989501 31.696595 -1.152053
2005-10-17 06:59:56 51°16.185 2°54.065 -999 3.989708 31.699091 -1.152053
2005-10-17 07:00:58 51°16.171 2°54.024 -999 3.988776 31.690831 -1.152053
2005-10-17 07:01:58 51°16.163 2°53.992 -999 3.990019 31.698541 -1.152053
2005-10-17 07:02:58 51°16.16 2°53.97 -999 3.982764 31.634311 -1.152053
2005-10-17 07:03:56 51°16.157 2°53.956 -999 3.988672 31.691895 -1.185762
2005-10-17 07:04:56 51°16.154 2°53.938 -999 3.988879 31.695052 -1.185762
2005-10-17 07:05:58 51°16.147 2°53.912 -999 3.988983 31.696631 -1.185762
2005-10-17 07:06:56 51°16.137 2°53.882 -999 3.988568 31.69296 -1.185762
2005-10-17 07:07:56 51°16.124 2°53.849 -999 3.986806 31.674715 -1.152053
2005-10-17 07:08:56 51°16.11 2°53.812 -999 3.983282 31.645494 -1.185762
2005-10-17 07:09:58 51°16.125 2°53.793 -999 3.98805 31.68771 -1.152053
2005-10-17 07:10:56 51°16.146 2°53.677 -999 3.987428 31.683524 -1.152053
2005-10-17 07:11:58 51°16.152 2°53.394 -999 3.988257 31.689545 -1.152053
2005-10-17 07:12:58 51°16.153 2°53.034 -999 3.99033 31.707903 -1.185762
2005-10-17 07:13:56 51°16.165 2°52.683 -999 4.006915 31.850173 -1.219471
2005-10-17 07:14:58 51°16.184 2°52.307 -999 4.019457 31.931379 -1.253181
2005-10-17 07:15:56 51°16.203 2°51.958 -999 4.045373 32.144949 -1.28689
2005-10-17 07:16:56 51°16.221 2°51.598 -999 4.057709 32.237514 -1.28689
2005-10-17 07:17:56 51°16.242 2°51.242 -999 4.069009 32.308763 -1.28689
2005-10-17 07:18:58 51°16.287 2°50.884 -999 4.077198 32.365169 -1.253181
2005-10-17 07:19:58 51°16.354 2°50.552 -999 4.091505 32.477055 -1.253181
2005-10-17 07:20:56 51°16.46 2°50.268 -999 4.098763 32.533231 -1.253181
2005-10-17 07:21:56 51°16.556 2°49.953 -999 4.108301 32.606895 -1.253181
2005-10-17 07:22:56 51°16.64 2°49.765 -999 4.116491 32.650999 -1.28689
2005-10-17 07:23:56 51°16.686 2°49.765 -999 4.118046 32.641763 -1.28689
2005-10-17 07:24:58 51°16.683 2°49.812 -999 4.114936 32.611548 -1.28689
2005-10-17 07:25:58 51°16.664 2°49.817 -999 4.114106 32.604212 -1.28689
2005-10-17 07:26:56 51°16.644 2°49.802 -999 4.113795 32.600111 -1.28689
2005-10-17 07:27:58 51°16.651 2°49.757 -999 4.114003 32.600594 -1.253181
2005-10-17 07:28:58 51°16.65 2°49.716 -999 4.098347 32.458833 -1.28689
2005-10-17 07:29:56 51°16.551 2°49.614 -999 4.111307 32.575408 -1.28689
2005-10-17 07:30:58 51°16.37 2°49.374 -999 4.111307 32.571362 -1.28689
2005-10-17 07:31:58 51°16.192 2°49.125 -999 4.117424 32.617346 -1.253181
2005-10-17 07:32:58 51°16.011 2°48.878 -999 4.12406 32.676017 -1.28689
2005-10-17 07:33:56 51°15.839 2°48.637 -999 4.132354 32.75616 -1.28689
2005-10-17 07:34:58 51°15.656 2°48.382 -999 4.140442 32.832486 -1.253181
2005-10-17 07:35:58 51°15.48 2°48.136 -999 4.147597 32.912184 -1.28689
2005-10-17 07:36:58 51°15.302 2°47.9 -999 4.141895 32.896435 -1.28689
2005-10-17 07:37:58 51°15.124 2°47.665 -999 4.13868 32.867256 -1.28689
2005-10-17 07:38:58 51°14.946 2°47.425 -999 4.135984 32.843358 -1.28689
2005-10-17 07:39:58 51°14.77 2°47.176 -999 4.132874 32.811022 -1.253181
2005-10-17 07:40:56 51°14.6 2°46.934 -999 4.121261 32.718995 -1.253181
2005-10-17 07:41:58 51°14.416 2°46.677 -999 4.099385 32.560368 -1.253181
2005-10-17 07:42:58 51°14.238 2°46.431 -999 4.090158 32.487379 -1.253181
2005-10-17 07:43:56 51°14.066 2°46.197 -999 4.090469 32.478663 -1.253181
2005-10-17 07:44:58 51°13.882 2°45.951 -999 4.091713 32.484287 -1.219471
2005-10-17 07:45:58 51°13.705 2°45.717 -999 4.094512 32.504359 -1.219471
2005-10-17 07:46:58 51°13.522 2°45.484 -999 4.098348 32.541041 -1.219471
2005-10-17 07:47:58 51°13.341 2°45.246 -999 4.0998 32.554577 -1.185762
2005-10-17 07:48:58 51°13.162 2°45.008 -999 4.099903 32.554143 -1.185762
2005-10-17 07:49:56 51°12.99 2°44.773 -999 4.102495 32.584552 -1.185762
2005-10-17 07:50:56 51°12.814 2°44.522 -999 4.100215 32.581933 -1.185762
2005-10-17 07:51:56 51°12.64 2°44.266 -999 4.107161 32.653716 -1.185762
2005-10-17 07:52:56 51°12.467 2°44.014 -999 4.112035 32.710557 -1.219471
2005-10-17 07:53:58 51°12.289 2°43.753 -999 4.118048 32.781681 -1.185762
2005-10-17 07:54:58 51°12.119 2°43.502 -999 4.133083 32.917351 -1.219471
2005-10-17 07:55:58 51°11.949 2°43.253 -999 4.152161 33.071199 -1.219471
2005-10-17 07:56:56 51°11.783 2°43.022 -999 4.173522 33.233577 -1.219471
2005-10-17 07:57:58 51°11.619 2°42.745 -999 4.199031 33.431357 -1.219471
2005-10-17 07:58:58 51°11.463 2°42.469 -999 4.228068 33.662496 -1.219471
2005-10-17 07:59:58 51°11.318 2°42.21 -999 4.252336 33.84971 -1.253181
2005-10-17 08:00:56 51°11.199 2°42.131 -999 4.26696 33.962262 -1.253181
2005-10-17 08:01:58 51°11.137 2°42.15 -999 4.274427 34.018146 -1.253181
2005-10-17 08:02:58 51°11.12 2°42.125 -999 4.280962 34.081947 -1.253181
2005-10-17 08:03:56 51°11.109 2°42.095 -999 4.267479 33.992243 -1.253181
2005-10-17 08:04:58 51°11.1 2°42.057 -999 4.259597 33.947411 -1.253181
2005-10-17 08:05:56 51°11.094 2°42.017 -999 4.256693 33.927175 -1.253181
2005-10-17 08:06:58 51°11.088 2°41.968 -999 4.254411 33.91248 -1.253181
2005-10-17 08:07:58 51°11.081 2°41.917 -999 4.249744 33.877934 -1.253181
2005-10-17 08:08:58 51°11.088 2°41.905 -999 4.244766 33.841312 -1.253181
2005-10-17 08:09:56 51°11.143 2°41.853 -999 4.246633 33.857245 -1.253181
2005-10-17 08:10:58 51°11.107 2°41.677 -999 4.275362 34.070933 -1.253181
2005-10-17 08:11:58 51°11.014 2°41.379 -999 4.279718 34.083583 -1.253181
2005-10-17 08:12:56 51°10.922 2°41.052 -999 4.297246 34.204981 -1.253181
2005-10-17 08:13:58 51°10.836 2°40.692 -999 4.297765 34.196142 -1.253181
2005-10-17 08:14:56 51°10.755 2°40.353 -999 4.303677 34.242379 -1.219471
2005-10-17 08:15:58 51°10.669 2°39.991 -999 4.306788 34.26369 -1.253181
2005-10-17 08:16:58 51°10.585 2°39.641 -999 4.302951 34.225293 -1.253181
2005-10-17 08:17:58 51°10.5 2°39.29 -999 4.304506 34.232051 -1.219471
2005-10-17 08:18:58 51°10.423 2°38.932 -999 4.302847 34.213752 -1.219471
2005-10-17 08:19:58 51°10.351 2°38.57 -999 4.306684 34.241511 -1.219471
2005-10-17 08:20:58 51°10.279 2°38.205 -999 4.304817 34.217833 -1.219471
2005-10-17 08:21:58 51°10.218 2°37.836 -999 4.309277 34.248992 -1.219471
2005-10-17 08:22:58 51°10.16 2°37.467 -999 4.308759 34.235184 -1.219471
2005-10-17 08:23:58 51°10.103 2°37.103 -999 4.317886 34.301435 -1.253181
2005-10-17 08:24:58 51°10.053 2°36.739 -999 4.314775 34.2752 -1.253181
2005-10-17 08:25:58 51°10.019 2°36.372 -999 4.311144 34.250018 -1.219471
2005-10-17 08:26:58 51°10.027 2°36.006 -999 4.310522 34.245195 -1.253181
2005-10-17 08:27:58 51°10.138 2°35.712 -999 4.308862 34.221965 -1.253181
2005-10-17 08:28:58 51°10.33 2°35.64 -999 4.32162 34.2985 -1.219471
2005-10-17 08:29:58 51°10.509 2°35.758 -999 4.332823 34.375291 -1.219471
2005-10-17 08:30:56 51°10.662 2°35.932 -999 4.341329 34.435898 -1.219471
2005-10-17 08:31:58 51°10.829 2°36.109 -999 4.34413 34.451529 -1.253181
2005-10-17 08:32:58 51°10.998 2°36.262 -999 4.337594 34.399214 -1.253181
2005-10-17 08:33:58 51°11.169 2°36.412 -999 4.330852 34.345057 -1.253181
2005-10-17 08:34:58 51°11.337 2°36.563 -999 4.327532 34.316317 -1.219471
2005-10-17 08:35:58 51°11.508 2°36.715 -999 4.320686 34.261947 -1.253181
2005-10-17 08:36:58 51°11.679 2°36.867 -999 4.31301 34.202329 -1.219471
2005-10-17 08:37:58 51°11.848 2°37.016 -999 4.292784 34.051072 -1.219471
2005-10-17 08:38:58 51°12.018 2°37.165 -999 4.264469 33.846134 -1.219471
2005-10-17 08:39:56 51°12.182 2°37.31 -999 4.249742 33.725257 -1.219471
2005-10-17 08:40:58 51°12.357 2°37.465 -999 4.236778 33.606133 -1.219471
2005-10-17 08:41:56 51°12.516 2°37.624 -999 4.224747 33.495369 -1.219471
2005-10-17 08:42:58 51°12.687 2°37.794 -999 4.218421 33.444861 -1.219471
2005-10-17 08:43:58 51°12.852 2°37.955 -999 4.214273 33.410879 -1.219471
2005-10-17 08:44:58 51°13.017 2°38.118 -999 4.210747 33.38172 -1.219471
2005-10-17 08:45:58 51°13.184 2°38.287 -999 4.211266 33.381484 -1.219471
2005-10-17 08:46:56 51°13.349 2°38.447 -999 4.219043 33.452446 -1.219471
2005-10-17 08:47:58 51°13.529 2°38.602 -999 4.218525 33.454764 -1.219471
2005-10-17 08:48:58 51°13.712 2°38.724 -999 4.233666 33.58133 -1.219471
2005-10-17 08:49:58 51°13.909 2°38.801 -999 4.236778 33.613077 -1.219471
2005-10-17 08:50:58 51°14.11 2°38.82 -999 4.239785 33.633489 -1.219471
2005-10-17 08:51:58 51°14.301 2°38.722 -999 4.248497 33.682205 -1.219471
2005-10-17 08:52:58 51°14.479 2°38.545 -999 4.233976 33.495526 -1.185762
2005-10-17 08:53:58 51°14.656 2°38.369 -999 4.242998 33.52628 -1.219471
2005-10-17 08:54:58 51°14.832 2°38.194 -999 4.244553 33.507637 -1.219471
2005-10-17 08:55:58 51°15.009 2°38.025 -999 4.239679 33.45296 -1.219471
2005-10-17 08:56:58 51°15.188 2°37.862 -999 4.237293 33.427126 -1.219471
2005-10-17 08:57:58 51°15.37 2°37.697 -999 4.235219 33.405415 -1.219471
2005-10-17 08:58:58 51°15.555 2°37.533 -999 4.234493 33.397646 -1.219471
2005-10-17 08:59:58 51°15.742 2°37.376 -999 4.238538 33.429177 -1.219471
2005-10-17 09:00:58 51°15.929 2°37.221 -999 4.243205 33.469624 -1.219471
2005-10-17 09:01:58 51°16.116 2°37.06 -999 4.246316 33.50255 -1.219471
2005-10-17 09:02:58 51°16.303 2°36.906 -999 4.24559 33.498212 -1.219471
2005-10-17 09:03:58 51°16.408 2°36.846 -999 4.244345 33.476932 -1.219471
2005-10-17 09:04:58 51°16.466 2°36.803 -999 4.242064 33.452018 -1.219471
2005-10-17 09:05:58 51°16.518 2°36.754 -999 4.240508 33.430767 -1.219471
2005-10-17 09:06:58 51°16.565 2°36.746 -999 4.239263 33.423231 -1.219471
2005-10-17 09:07:58 51°16.571 2°36.732 -999 4.237397 33.406785 -1.219471
2005-10-17 09:08:58 51°16.569 2°36.714 -999 4.237085 33.402674 -1.219471
2005-10-17 09:09:58 51°16.564 2°36.689 -999 4.237293 33.403131 -1.219471
2005-10-17 09:10:58 51°16.558 2°36.66 -999 4.236982 33.400391 -1.219471
2005-10-17 09:11:58 51°16.552 2°36.629 -999 4.236774 33.399249 -1.219471
2005-10-17 09:12:58 51°16.546 2°36.597 -999 4.237085 33.399934 -1.219471
2005-10-17 09:13:58 51°16.54 2°36.564 -999 4.237293 33.399706 -1.219471
2005-10-17 09:14:58 51°16.533 2°36.53 -999 4.237604 33.397653 -1.219471
2005-10-17 09:15:58 51°16.527 2°36.495 -999 4.238537 33.396972 -1.219471
2005-10-17 09:16:58 51°16.525 2°36.467 -999 4.238952 33.397886 -1.219471
2005-10-17 09:17:58 51°16.586 2°36.428 -999 4.2375 33.39674 -1.219471
2005-10-17 09:18:58 51°16.755 2°36.333 -999 4.236567 33.394682 -1.219471
2005-10-17 09:19:58 51°16.943 2°36.185 -999 4.2375 33.405643 -1.219471
2005-10-17 09:20:58 51°17.112 2°35.982 -999 4.24393 33.454058 -1.219471
2005-10-17 09:21:58 51°17.266 2°35.751 -999 4.260524 33.558997 -1.219471
2005-10-17 09:22:58 51°17.411 2°35.509 -999 4.259383 33.553076 -1.219471
2005-10-17 09:23:58 51°17.555 2°35.268 -999 4.260109 33.562217 -1.219471
2005-10-17 09:24:58 51°17.698 2°35.017 -999 4.260939 33.572961 -1.219471
2005-10-17 09:25:58 51°17.833 2°34.75 -999 4.261976 33.584846 -1.219471
2005-10-17 09:26:58 51°17.966 2°34.475 -999 4.266021 33.620475 -1.219471
2005-10-17 09:27:58 51°18.099 2°34.198 -999 4.270377 33.655403 -1.219471
2005-10-17 09:28:58 51°18.23 2°33.919 -999 4.2738 33.685558 -1.219471
2005-10-17 09:29:58 51°18.358 2°33.64 -999 4.275771 33.703611 -1.219471
2005-10-17 09:30:58 51°18.486 2°33.364 -999 4.275978 33.708201 -1.219471
2005-10-17 09:31:58 51°18.614 2°33.087 -999 4.280853 33.746325 -1.219471
2005-10-17 09:32:58 51°18.738 2°32.802 -999 4.283757 33.766387 -1.219471
2005-10-17 09:33:58 51°18.859 2°32.514 -999 4.284379 33.756662 -1.219471
2005-10-17 09:34:58 51°18.982 2°32.226 -999 4.282305 33.739081 -1.219471
2005-10-17 09:35:58 51°19.104 2°31.937 -999 4.283653 33.746813 -1.219471
2005-10-17 09:36:58 51°19.225 2°31.644 -999 4.28749 33.751605 -1.219471
2005-10-17 09:37:58 51°19.346 2°31.352 -999 4.30284 33.819683 -1.219471
2005-10-17 09:38:58 51°19.469 2°31.065 -999 4.30813 33.862725 -1.219471
2005-10-17 09:39:58 51°19.593 2°30.784 -999 4.316636 33.924349 -1.219471
2005-10-17 09:40:58 51°19.727 2°30.521 -999 4.324519 33.976327 -1.219471
2005-10-17 09:41:58 51°19.872 2°30.291 -999 4.330846 34.017378 -1.219471
2005-10-17 09:42:58 51°19.953 2°30.144 -999 4.335825 34.049335 -1.219471
2005-10-17 09:43:58 51°20 2°30.064 -999 4.336655 34.054545 -1.219471
2005-10-17 09:44:58 51°20.021 2°30.048 -999 4.335307 34.047552 -1.219471
2005-10-17 09:45:58 51°20.023 2°30.051 -999 4.335722 34.048424 -1.219471
2005-10-17 09:46:58 51°20.022 2°30.056 -999 4.336137 34.050682 -1.219471
2005-10-17 09:47:58 51°20.019 2°30.06 -999 4.336137 34.052069 -1.219471
2005-10-17 09:48:58 51°20.014 2°30.063 -999 4.336137 34.050682 -1.219471
2005-10-17 09:49:58 51°20.039 2°30.096 -999 4.335929 34.050247 -1.219471
2005-10-17 09:50:58 51°20.095 2°30.275 -999 4.336344 34.053891 -1.219471
2005-10-17 09:51:58 51°20.173 2°30.595 -999 4.344124 34.102107 -1.219471
2005-10-17 09:52:58 51°20.232 2°30.939 -999 4.356572 34.179459 -1.219471
2005-10-17 09:53:58 51°20.291 2°31.278 -999 4.33873 34.06514 -1.219471
2005-10-17 09:54:58 51°20.349 2°31.612 -999 4.331365 34.019855 -1.219471
2005-10-17 09:55:58 51°20.408 2°31.944 -999 4.328979 34.00513 -1.219471
2005-10-17 09:56:58 51°20.467 2°32.274 -999 4.328979 34.00513 -1.219471
2005-10-17 09:57:58 51°20.527 2°32.606 -999 4.330328 34.012821 -1.219471
2005-10-17 09:58:58 51°20.589 2°32.935 -999 4.330328 34.016978 -1.219471
2005-10-17 09:59:58 51°20.651 2°33.263 -999 4.325038 33.98227 -1.219471
2005-10-17 10:00:58 51°20.716 2°33.591 -999 4.319229 33.944373 -1.219471
2005-10-17 10:01:58 51°20.78 2°33.925 -999 4.317154 33.933059 -1.219471
2005-10-17 10:02:58 51°20.845 2°34.26 -999 4.31591 33.926269 -1.219471
2005-10-17 10:03:58 51°20.91 2°34.593 -999 4.317673 33.935542 -1.219471
2005-10-17 10:04:58 51°20.976 2°34.927 -999 4.317984 33.938969 -1.219471
2005-10-17 10:05:58 51°21.093 2°35.214 -999 4.318814 33.943495 -1.219471
2005-10-17 10:06:58 51°21.212 2°35.503 -999 4.317984 33.937585 -1.219471
2005-10-17 10:07:58 51°21.329 2°35.795 -999 4.317258 33.931203 -1.185762
2005-10-17 10:08:58 51°21.445 2°36.089 -999 4.316117 33.923249 -1.185762
2005-10-17 10:09:58 51°21.563 2°36.385 -999 4.316117 33.921174 -1.219471
2005-10-17 10:10:58 51°21.68 2°36.683 -999 4.315806 33.920514 -1.185762
2005-10-17 10:11:58 51°21.797 2°36.981 -999 4.316117 33.920483 -1.219471
2005-10-17 10:12:58 51°21.914 2°37.28 -999 4.316636 33.923658 -1.219471
2005-10-17 10:13:58 51°22.032 2°37.578 -999 4.317465 33.9268 -1.185762
2005-10-17 10:14:58 51°22.15 2°37.876 -999 4.317362 33.92174 -1.185762
2005-10-17 10:15:58 51°22.266 2°38.172 -999 4.315494 33.899807 -1.219471
2005-10-17 10:16:58 51°22.384 2°38.467 -999 4.313939 33.893737 -1.219471
2005-10-17 10:17:58 51°22.502 2°38.763 -999 4.311345 33.861292 -1.219471
2005-10-17 10:18:58 51°22.62 2°39.059 -999 4.3101 33.839328 -1.219471
2005-10-17 10:19:58 51°22.739 2°39.356 -999 4.309063 33.81989 -1.219471
2005-10-17 10:20:58 51°22.856 2°39.652 -999 4.308233 33.798157 -1.219471
2005-10-17 10:21:58 51°22.975 2°39.95 -999 4.307403 33.777818 -1.185762
2005-10-17 10:22:58 51°23.094 2°40.251 -999 4.306988 33.761819 -1.185762
2005-10-17 10:23:58 51°23.212 2°40.551 -999 4.306987 33.746724 -1.185762
2005-10-17 10:24:58 51°23.332 2°40.853 -999 4.307506 33.736872 -1.219471
2005-10-17 10:25:58 51°23.451 2°41.154 -999 4.307817 33.726582 -1.185762
2005-10-17 10:26:58 51°23.533 2°41.482 -999 4.308439 33.717655 -1.185762
2005-10-17 10:27:58 51°23.608 2°41.82 -999 4.308646 33.709211 -1.219471
2005-10-17 10:28:58 51°23.717 2°42.133 -999 4.309476 33.705531 -1.219471
2005-10-17 10:29:58 51°23.824 2°42.45 -999 4.309787 33.702103 -1.185762
2005-10-17 10:30:58 51°23.93 2°42.773 -999 4.309787 33.69937 -1.185762
2005-10-17 10:31:58 51°24.037 2°43.096 -999 4.309787 33.695955 -1.185762
2005-10-17 10:32:58 51°24.144 2°43.418 -999 4.308957 33.686653 -1.219471
2005-10-17 10:33:58 51°24.251 2°43.739 -999 4.305638 33.659005 -1.219471
2005-10-17 10:34:58 51°24.361 2°44.062 -999 4.300659 33.621626 -1.219471
2005-10-17 10:35:58 51°24.471 2°44.388 -999 4.297029 33.596027 -1.219471
2005-10-17 10:36:58 51°24.581 2°44.714 -999 4.294539 33.578355 -1.185762
2005-10-17 10:37:58 51°24.691 2°45.039 -999 4.290702 33.550255 -1.185762
2005-10-17 10:38:58 51°24.801 2°45.364 -999 4.287383 33.524644 -1.219471
2005-10-17 10:39:58 51°24.91 2°45.689 -999 4.284478 33.503338 -1.185762
2005-10-17 10:40:58 51°25.019 2°46.011 -999 4.278255 33.460488 -1.185762
2005-10-17 10:41:58 51°25.129 2°46.332 -999 4.272551 33.418085 -1.185762
2005-10-17 10:42:58 51°25.236 2°46.653 -999 4.268091 33.385878 -1.185762
2005-10-17 10:43:58 51°25.342 2°46.974 -999 4.264254 33.357074 -1.185762
2005-10-17 10:44:58 51°25.455 2°47.289 -999 4.260624 33.328726 -1.185762
2005-10-17 10:45:58 51°25.58 2°47.592 -999 4.256579 33.297427 -1.185762
2005-10-17 10:46:58 51°25.705 2°47.895 -999 4.253364 33.272027 -1.185762
2005-10-17 10:47:58 51°25.847 2°48.182 -999 4.25243 33.261166 -1.185762
2005-10-17 10:48:58 51°25.976 2°48.435 -999 4.253364 33.261893 -1.185762
2005-10-17 10:49:58 51°26.028 2°48.587 -999 4.2488 33.232817 -1.185762
2005-10-17 10:50:58 51°26.033 2°48.6 -999 4.246311 33.217137 -1.185762
2005-10-17 10:51:58 51°26.036 2°48.61 -999 4.246622 33.217157 -1.185762
2005-10-17 10:52:58 51°26.042 2°48.62 -999 4.246519 33.21625 -1.185762
2005-10-17 10:53:58 51°26.047 2°48.629 -999 4.246311 33.215112 -1.185762
2005-10-17 10:54:58 51°26.052 2°48.639 -999 4.246 33.213743 -1.219471
2005-10-17 10:55:58 51°26.057 2°48.648 -999 4.246415 33.213995 -1.185762
2005-10-17 10:56:58 51°26.062 2°48.657 -999 4.246104 33.212625 -1.185762
2005-10-17 10:57:58 51°26.094 2°48.665 -999 4.246 33.212393 -1.185762
2005-10-17 10:58:58 51°26.156 2°48.775 -999 4.244548 33.197681 -1.185762
2005-10-17 10:59:58 51°26.226 2°49.085 -999 4.240918 33.175397 -1.185762
2005-10-17 11:00:58 51°26.263 2°49.452 -999 4.236148 33.145155 -1.185762
2005-10-17 11:01:58 51°26.297 2°49.825 -999 4.230133 33.110079 -1.219471
2005-10-17 11:02:58 51°26.333 2°50.197 -999 4.227333 33.109167 -1.185762
2005-10-17 11:03:58 51°26.37 2°50.569 -999 4.228992 33.117618 -1.185762
2005-10-17 11:04:58 51°26.409 2°50.942 -999 4.232622 33.135888 -1.185762
2005-10-17 11:05:58 51°26.447 2°51.316 -999 4.236355 33.155055 -1.185762
2005-10-17 11:06:58 51°26.488 2°51.687 -999 4.240089 33.174886 -1.185762
2005-10-17 11:07:58 51°26.53 2°52.06 -999 4.237392 33.158056 -1.185762
2005-10-17 11:08:58 51°26.573 2°52.431 -999 4.230444 33.1128 -1.185762
2005-10-17 11:09:58 51°26.616 2°52.806 -999 4.220074 33.049023 -1.185762
2005-10-17 11:10:58 51°26.658 2°53.181 -999 4.216237 33.027562 -1.185762
2005-10-17 11:11:58 51°26.7 2°53.554 -999 4.211778 32.998629 -1.185762
2005-10-17 11:12:58 51°26.743 2°53.927 -999 4.20877 32.974328 -1.185762
2005-10-17 11:13:58 51°26.802 2°54.293 -999 4.211052 32.982869 -1.185762
2005-10-17 11:14:58 51°26.87 2°54.663 -999 4.208148 32.959482 -1.185762
2005-10-17 11:15:58 51°26.934 2°55.031 -999 4.203585 32.926277 -1.185762
2005-10-17 11:16:58 51°27.001 2°55.399 -999 4.20037 32.906871 -1.185762
2005-10-17 11:17:58 51°27.067 2°55.764 -999 4.193008 32.856523 -1.185762
2005-10-17 11:18:58 51°27.133 2°56.126 -999 4.184297 32.797699 -1.185762
2005-10-17 11:19:58 51°27.191 2°56.501 -999 4.178076 32.757284 -1.185762
2005-10-17 11:20:58 51°27.247 2°56.873 -999 4.173824 32.730758 -1.185762
2005-10-17 11:21:58 51°27.305 2°57.242 -999 4.170817 32.711778 -1.185762
2005-10-17 11:22:58 51°27.362 2°57.61 -999 4.166566 32.683899 -1.185762
2005-10-17 11:23:58 51°27.419 2°57.976 -999 4.162626 32.66007 -1.185762
2005-10-17 11:24:58 51°27.475 2°58.341 -999 4.155057 32.611774 -1.185762
2005-10-17 11:25:58 51°27.532 2°58.711 -999 4.150702 32.58495 -1.185762
2005-10-17 11:26:58 51°27.587 2°59.08 -999 4.147073 32.565142 -1.185762
2005-10-17 11:27:58 51°27.643 2°59.447 -999 4.143133 32.541932 -1.185762
2005-10-17 11:28:58 51°27.7 2°59.814 -999 4.140956 32.530836 -1.185762
2005-10-17 11:29:58 51°27.758 3°0.186 -999 4.138571 32.517918 -1.185762
2005-10-17 11:30:58 51°27.817 3°0.557 -999 4.137534 32.512156 -1.185762
2005-10-17 11:31:58 51°27.877 3°0.928 -999 4.140022 32.525984 -1.152053
2005-10-17 11:32:58 51°27.934 3°1.302 -999 4.1422 32.538414 -1.185762
2005-10-17 11:33:58 51°27.994 3°1.674 -999 4.146969 32.563567 -1.152053
2005-10-17 11:34:58 51°28.053 3°2.047 -999 4.151324 32.587068 -1.152053
2005-10-17 11:35:58 51°28.11 3°2.422 -999 4.154746 32.605048 -1.185762
2005-10-17 11:36:58 51°28.169 3°2.799 -999 4.156923 32.616789 -1.152053
2005-10-17 11:37:58 51°28.226 3°3.175 -999 4.158167 32.623686 -1.152053
2005-10-17 11:38:58 51°28.276 3°3.45 -999 4.157856 32.621629 -1.185762
2005-10-17 11:39:59 51°28.302 3°3.523 -999 4.157234 32.618847 -1.152053
2005-10-17 11:40:58 51°28.304 3°3.539 -999 4.156508 32.61849 -1.185762
2005-10-17 11:41:58 51°28.308 3°3.562 -999 4.15599 32.617282 -1.185762
2005-10-17 11:42:58 51°28.315 3°3.585 -999 4.156301 32.618007 -1.152053
2005-10-17 11:43:58 51°28.324 3°3.613 -999 4.156301 32.618674 -1.185762
2005-10-17 11:44:58 51°28.339 3°3.638 -999 4.156612 32.619398 -1.185762
2005-10-17 11:45:58 51°28.405 3°3.699 -999 4.156923 32.619456 -1.185762
2005-10-17 11:46:58 51°28.4 3°3.93 -999 4.156923 32.618789 -1.185762
2005-10-17 11:47:58 51°28.287 3°4.224 -999 4.156405 32.616915 -1.185762
2005-10-17 11:48:58 51°28.161 3°4.517 -999 4.157545 32.623572 -1.152053
2005-10-17 11:49:58 51°28.033 3°4.809 -999 4.159826 32.63755 -1.185762
2005-10-17 11:50:58 51°27.907 3°5.101 -999 4.163041 32.6617 -1.152053
2005-10-17 11:51:58 51°27.781 3°5.393 -999 4.166359 32.687425 -1.152053
2005-10-17 11:52:58 51°27.657 3°5.686 -999 4.167707 32.701905 -1.185762
2005-10-17 11:53:58 51°27.532 3°5.977 -999 4.169366 32.714433 -1.185762
2005-10-17 11:54:58 51°27.406 3°6.264 -999 4.17258 32.732562 -1.152053
2005-10-17 11:55:58 51°27.279 3°6.551 -999 4.175173 32.749916 -1.152053
2005-10-17 11:56:58 51°27.154 3°6.837 -999 4.176002 32.757851 -1.152053
2005-10-17 11:57:58 51°27.028 3°7.12 -999 4.174862 32.755888 -1.152053
2005-10-17 11:58:58 51°26.903 3°7.403 -999 4.168848 32.727948 -1.152053
2005-10-17 11:59:58 51°26.778 3°7.689 -999 4.162419 32.695674 -1.152053
2005-10-17 12:00:58 51°26.653 3°7.974 -999 4.157339 32.669175 -1.152053
2005-10-17 12:01:58 51°26.56 3°8.172 -999 4.153398 32.649321 -1.152053
2005-10-17 12:02:58 51°26.518 3°8.327 -999 4.14977 32.633524 -1.152053
2005-10-17 12:03:58 51°26.513 3°8.408 -999 4.148525 32.621933 -1.152053
2005-10-17 12:04:58 51°26.526 3°8.426 -999 4.147281 32.61703 -1.152053
2005-10-17 12:05:58 51°26.537 3°8.442 -999 4.146348 32.613518 -1.152053
2005-10-17 12:06:58 51°26.547 3°8.456 -999 4.146141 32.613035 -1.152053
2005-10-17 12:07:58 51°26.557 3°8.469 -999 4.145519 32.611585 -1.152053
2005-10-17 12:08:58 51°26.553 3°8.474 -999 4.14583 32.610973 -1.152053
2005-10-17 12:09:58 51°26.498 3°8.531 -999 4.146763 32.609804 -1.152053
2005-10-17 12:10:58 51°26.381 3°8.737 -999 4.144585 32.603391 -1.118343
2005-10-17 12:11:58 51°26.279 3°9.049 -999 4.139816 32.580226 -1.118343
2005-10-17 12:12:58 51°26.18 3°9.369 -999 4.135876 32.557647 -1.118343
2005-10-17 12:13:58 51°26.08 3°9.685 -999 4.131936 32.539736 -1.118343
2005-10-17 12:14:58 51°25.977 3°9.998 -999 4.128411 32.521449 -1.118343
2005-10-17 12:15:58 51°25.873 3°10.31 -999 4.123331 32.494153 -1.118343
2005-10-17 12:16:58 51°25.767 3°10.62 -999 4.118665 32.467147 -1.118343
2005-10-17 12:17:58 51°25.662 3°10.929 -999 4.114311 32.443531 -1.118343
2005-10-17 12:18:58 51°25.564 3°11.249 -999 4.109645 32.415161 -1.118343
2005-10-17 12:19:58 51°25.478 3°11.577 -999 4.103529 32.379337 -1.118343
2005-10-17 12:20:58 51°25.433 3°11.928 -999 4.09876 32.352689 -1.118343
2005-10-17 12:21:58 51°25.44 3°12.296 -999 4.095857 32.333793 -1.118343
2005-10-17 12:22:58 51°25.445 3°12.665 -999 4.095339 32.334562 -1.084634
2005-10-17 12:23:58 51°25.456 3°13.037 -999 4.094924 32.333577 -1.084634
2005-10-17 12:24:58 51°25.479 3°13.407 -999 4.093369 32.325213 -1.084634
2005-10-17 12:25:58 51°25.502 3°13.78 -999 4.08974 32.309248 -1.084634
2005-10-17 12:26:58 51°25.538 3°14.151 -999 4.086112 32.291271 -1.084634
2005-10-17 12:27:58 51°25.587 3°14.519 -999 4.082587 32.276866 -1.084634
2005-10-17 12:28:58 51°25.628 3°14.89 -999 4.079788 32.264184 -1.084634
2005-10-17 12:29:58 51°25.668 3°15.264 -999 4.077508 32.254069 -1.084634
2005-10-17 12:30:58 51°25.706 3°15.639 -999 4.076264 32.246427 -1.084634
2005-10-17 12:31:58 51°25.743 3°16.017 -999 4.075538 32.241357 -1.118343
2005-10-17 12:32:58 51°25.779 3°16.396 -999 4.073983 32.233637 -1.084634
2005-10-17 12:33:58 51°25.813 3°16.776 -999 4.072221 32.224752 -1.084634
2005-10-17 12:34:58 51°25.84 3°17.157 -999 4.070873 32.215524 -1.084634
2005-10-17 12:35:58 51°25.865 3°17.528 -999 4.068696 32.20364 -1.084634
2005-10-17 12:36:58 51°25.874 3°17.747 -999 4.063616 32.180788 -1.084634
2005-10-17 12:37:58 51°25.881 3°17.797 -999 4.060714 32.168483 -1.118343
2005-10-17 12:38:58 51°25.885 3°17.812 -999 4.060714 32.169816 -1.118343
2005-10-17 12:39:58 51°25.888 3°17.829 -999 4.061232 32.174396 -1.084634
2005-10-17 12:40:58 51°25.893 3°17.849 -999 4.06258 32.183636 -1.084634
2005-10-17 12:41:58 51°25.9 3°17.87 -999 4.063306 32.188713 -1.084634
2005-10-17 12:42:58 51°25.908 3°17.891 -999 4.063824 32.190624 -1.084634
2005-10-17 12:43:58 51°25.946 3°17.844 -999 4.06372 32.191042 -1.084634
2005-10-17 12:44:58 51°25.88 3°17.673 -999 4.062476 32.181385 -1.084634
2005-10-17 12:45:58 51°25.75 3°17.462 -999 4.064964 32.190691 -1.084634
2005-10-17 12:46:58 51°25.595 3°17.277 -999 4.072843 32.24359 -1.017215
2005-10-17 12:47:58 51°25.443 3°17.09 -999 4.080618 32.300222 -1.050924
2005-10-17 12:48:58 51°25.288 3°16.909 -999 4.073879 32.230055 -1.118343
2005-10-17 12:49:58 51°25.132 3°16.721 -999 4.061543 32.137839 -1.118343
2005-10-17 12:50:58 51°24.974 3°16.527 -999 4.055841 32.09683 -1.084634
2005-10-17 12:51:58 51°24.813 3°16.341 -999 4.052627 32.072455 -1.050924
2005-10-17 12:52:58 51°24.663 3°16.147 -999 4.058329 32.104164 -1.050924
2005-10-17 12:53:58 51°24.519 3°15.945 -999 4.056463 32.083054 -1.050924
2005-10-17 12:54:58 51°24.37 3°15.74 -999 4.049724 32.031582 -1.017215
2005-10-17 12:55:58 51°24.223 3°15.532 -999 4.047133 32.016015 -1.017215
2005-10-17 12:56:58 51°24.075 3°15.327 -999 4.045267 32.006845 -0.983506
2005-10-17 12:57:58 51°23.928 3°15.123 -999 4.04506 32.007004 -1.017215
2005-10-17 12:58:58 51°23.78 3°14.923 -999 4.045371 32.0124 -1.017215
2005-10-17 12:59:58 51°23.636 3°14.727 -999 4.0462 32.011762 -0.983506
2005-10-17 13:00:58 51°23.492 3°14.527 -999 4.045578 31.999648 -1.017215
2005-10-17 13:01:58 51°23.346 3°14.328 -999 4.046511 32.003902 -1.017215
2005-10-17 13:02:58 51°23.202 3°14.122 -999 4.047754 31.998978 -1.017215
2005-10-17 13:03:58 51°23.056 3°13.922 -999 4.045992 31.976828 -1.050924
2005-10-17 13:04:58 51°22.908 3°13.72 -999 4.041742 31.935413 -1.050924
2005-10-17 13:05:58 51°22.769 3°13.505 -999 4.033552 31.867889 -1.050924
2005-10-17 13:06:58 51°22.656 3°13.284 -999 4.025363 31.801686 -1.050924
2005-10-17 13:07:58 51°22.602 3°13.208 -999 4.018522 31.750634 -1.050924
2005-10-17 13:08:58 51°22.6 3°13.203 -999 4.015827 31.730838 -1.050924
2005-10-17 13:09:58 51°22.6 3°13.197 -999 4.014686 31.723422 -1.050924
2005-10-17 13:10:58 51°22.599 3°13.192 -999 4.014375 31.718713 -1.050924
2005-10-17 13:11:58 51°22.594 3°13.19 -999 4.015515 31.716942 -1.084634
2005-10-17 13:12:58 51°22.576 3°13.173 -999 4.016448 31.719251 -1.050924
2005-10-17 13:13:58 51°22.527 3°12.96 -999 4.015619 31.717198 -1.050924
2005-10-17 13:14:58 51°22.519 3°12.659 -999 4.012406 31.706617 -1.017215
2005-10-17 13:15:58 51°22.516 3°12.357 -999 4.008985 31.689609 -1.017215
2005-10-17 13:16:58 51°22.51 3°12.055 -999 4.008156 31.680335 -1.017215
2005-10-17 13:17:58 51°22.491 3°11.756 -999 4.006187 31.664297 -1.017215
2005-10-17 13:18:58 51°22.468 3°11.455 -999 4.008052 31.667619 -1.017215
2005-10-17 13:19:57 51°11.072 2°56.428 -999 0.076504 0.435538 -1.185762
2005-10-17 13:20:37 51°11.072 2°56.428 -999 0.076504 0.435562 -1.219471
2005-10-17 13:21:23 51°22.404 3°10.728 -999 4.016241 31.70759 -1.050924
2005-10-17 13:22:23 51°22.378 3°10.428 -999 4.018625 31.72726 -1.017215
2005-10-17 13:23:23 51°22.354 3°10.126 -999 4.01479 31.705307 -1.017215
2005-10-17 13:24:23 51°22.33 3°9.824 -999 4.010747 31.682829 -1.017215
2005-10-17 13:25:24 51°22.299 3°9.519 -999 4.006186 31.65381 -1.017215
2005-10-17 13:26:23 51°22.266 3°9.224 -999 4.008052 31.670241 -1.050924
2005-10-17 13:27:23 51°22.232 3°8.919 -999 4.014064 31.707445 -1.050924
2005-10-17 13:28:24 51°22.199 3°8.606 -999 4.017278 31.731801 -1.084634
2005-10-17 13:29:23 51°22.162 3°8.306 -999 4.0179 31.735307 -1.084634
2005-10-17 13:30:23 51°22.128 3°8.001 -999 4.012924 31.711183 -1.050924
2005-10-17 13:31:23 51°22.069 3°7.705 -999 4.009918 31.69389 -1.084634
2005-10-17 13:32:23 51°22.008 3°7.411 -999 4.00712 31.679075 -1.050924
2005-10-17 13:33:23 51°21.945 3°7.118 -999 4.005254 31.664602 -1.084634
2005-10-17 13:34:23 51°21.882 3°6.822 -999 4.003699 31.653525 -1.084634
2005-10-17 13:35:23 51°21.821 3°6.526 -999 4.002559 31.652003 -1.084634
2005-10-17 13:36:23 51°21.76 3°6.231 -999 4.000175 31.630992 -1.084634
2005-10-17 13:37:23 51°21.699 3°5.937 -999 3.998413 31.612843 -1.050924
2005-10-17 13:38:23 51°21.639 3°5.637 -999 3.99862 31.613359 -1.050924
2005-10-17 13:39:23 51°21.578 3°5.335 -999 3.998931 31.61217 -1.084634
2005-10-17 13:40:23 51°21.519 3°5.031 -999 3.997791 31.608018 -1.084634
2005-10-17 13:41:23 51°21.458 3°4.728 -999 3.997376 31.605674 -1.084634
2005-10-17 13:42:23 51°21.393 3°4.428 -999 3.996443 31.5968 -1.084634
2005-10-17 13:43:24 51°21.329 3°4.12 -999 3.995925 31.594197 -1.084634
2005-10-17 13:44:24 51°21.267 3°3.819 -999 3.996236 31.596937 -1.084634
2005-10-17 13:45:23 51°21.207 3°3.525 -999 3.995614 31.596695 -1.084634
2005-10-17 13:46:23 51°21.146 3°3.225 -999 3.995303 31.591336 -1.050924
2005-10-17 13:47:23 51°21.084 3°2.924 -999 3.996132 31.594714 -1.050924
2005-10-17 13:48:24 51°21.023 3°2.619 -999 3.995511 31.600366 -1.050924
2005-10-17 13:49:23 51°20.966 3°2.323 -999 3.995407 31.605349 -1.050924
2005-10-17 13:50:24 51°20.908 3°2.02 -999 3.995822 31.612937 -1.017215
2005-10-17 13:51:23 51°20.851 3°1.726 -999 3.996237 31.625775 -1.017215
2005-10-17 13:52:23 51°20.794 3°1.427 -999 3.998932 31.648888 -1.017215
2005-10-17 13:53:23 51°20.73 3°1.129 -999 4.000486 31.661946 -1.017215
2005-10-17 13:54:23 51°20.661 3°0.83 -999 4.000486 31.66523 -1.017215
2005-10-17 13:55:23 51°20.594 3°0.531 -999 3.999657 31.659886 -1.050924
2005-10-17 13:56:23 51°20.527 3°0.232 -999 3.997273 31.636886 -1.084634
2005-10-17 13:57:23 51°20.462 2°59.934 -999 3.999139 31.650717 -1.084634
2005-10-17 13:58:23 51°20.397 2°59.64 -999 4.001627 31.667406 -1.084634
2005-10-17 13:59:23 51°20.333 2°59.345 -999 4.005876 31.708181 -1.050924
2005-10-17 14:00:23 51°20.271 2°59.048 -999 4.009919 31.740557 -1.050924
2005-10-17 14:01:23 51°20.207 2°58.752 -999 4.017072 31.806309 -1.050924
2005-10-17 14:02:23 51°20.143 2°58.455 -999 4.025364 31.880176 -1.050924
2005-10-17 14:03:23 51°20.08 2°58.156 -999 4.033761 31.949022 -1.050924
2005-10-17 14:04:23 51°20.016 2°57.859 -999 4.039877 32.001047 -1.050924
2005-10-17 14:05:23 51°19.954 2°57.556 -999 4.043816 32.035843 -1.084634
2005-10-17 14:06:23 51°19.889 2°57.257 -999 4.046823 32.063066 -1.084634
2005-10-17 14:07:23 51°19.824 2°56.957 -999 4.049414 32.073325 -1.084634
2005-10-17 14:08:23 51°19.759 2°56.658 -999 4.046408 32.045445 -1.084634
2005-10-17 14:09:23 51°19.693 2°56.359 -999 4.046097 32.034729 -1.084634
2005-10-17 14:10:23 51°19.629 2°56.058 -999 4.044853 32.018438 -1.084634
2005-10-17 14:11:23 51°19.561 2°55.76 -999 4.048999 32.037782 -1.084634
2005-10-17 14:12:23 51°19.494 2°55.456 -999 4.050865 32.046284 -1.084634
2005-10-17 14:13:23 51°19.428 2°55.152 -999 4.055322 32.076315 -1.050924
2005-10-17 14:14:24 51°19.361 2°54.844 -999 4.087667 32.309652 -1.084634
2005-10-17 14:15:23 51°19.296 2°54.546 -999 4.10664 32.446847 -1.084634
2005-10-17 14:16:23 51°19.221 2°54.248 -999 4.1168 32.523688 -1.118343
2005-10-17 14:17:23 51°19.149 2°53.948 -999 4.134634 32.656038 -1.118343
2005-10-17 14:18:23 51°19.08 2°53.646 -999 4.148631 32.762586 -1.118343
2005-10-17 14:19:23 51°19.014 2°53.338 -999 4.151742 32.785958 -1.152053
2005-10-17 14:20:24 51°18.947 2°53.026 -999 4.149046 32.761517 -1.118343
2005-10-17 14:21:23 51°18.883 2°52.726 -999 4.154645 32.813582 -1.118343
2005-10-17 14:22:23 51°18.816 2°52.42 -999 4.155786 32.823639 -1.118343
2005-10-17 14:23:23 51°18.747 2°52.114 -999 4.159 32.851308 -1.152053
2005-10-17 14:24:23 51°18.681 2°51.809 -999 4.158689 32.845181 -1.118343
2005-10-17 14:25:23 51°18.612 2°51.503 -999 4.161904 32.865403 -1.152053
2005-10-17 14:26:23 51°18.552 2°51.225 -999 4.165636 32.888158 -1.152053
2005-10-17 14:27:23 51°18.52 2°51.067 -999 4.170199 32.920248 -1.152053
2005-10-17 14:28:23 51°18.51 2°50.995 -999 4.168643 32.901122 -1.152053
2005-10-17 14:29:23 51°18.518 2°50.985 -999 4.168643 32.89503 -1.118343
2005-10-17 14:30:23 51°18.528 2°50.973 -999 4.168851 32.894151 -1.118343
2005-10-17 14:31:23 51°18.54 2°50.958 -999 4.169576 32.897162 -1.118343
2005-10-17 14:32:23 51°18.558 2°50.934 -999 4.170302 32.900173 -1.118343
2005-10-17 14:33:23 51°18.57 2°50.846 -999 4.170613 32.896825 -1.118343
2005-10-17 14:34:23 51°18.486 2°50.792 -999 4.17165 32.908664 -1.118343
2005-10-17 14:35:23 51°18.305 2°50.684 -999 4.174554 32.933563 -1.152053
2005-10-17 14:36:23 51°18.112 2°50.574 -999 4.179842 33.002551 -1.118343
2005-10-17 14:37:23 51°17.919 2°50.478 -999 4.192701 33.122771 -1.118343
2005-10-17 14:38:23 51°17.725 2°50.389 -999 4.205768 33.230566 -1.118343
2005-10-17 14:39:23 51°17.531 2°50.302 -999 4.21759 33.315733 -1.118343
2005-10-17 14:40:23 51°17.34 2°50.213 -999 4.224331 33.374542 -1.152053
2005-10-17 14:41:23 51°17.149 2°50.131 -999 4.226405 33.403845 -1.152053
2005-10-17 14:42:23 51°16.962 2°50.046 -999 4.228168 33.433175 -1.152053
2005-10-17 14:43:24 51°16.778 2°49.947 -999 4.226302 33.428383 -1.152053
2005-10-17 14:44:23 51°16.681 2°49.855 -999 4.222776 33.408233 -1.152053
2005-10-17 14:45:23 51°16.648 2°49.807 -999 4.220909 33.399303 -1.152053
2005-10-17 14:46:23 51°16.648 2°49.802 -999 4.219872 33.392199 -1.152053
2005-10-17 14:47:23 51°16.652 2°49.805 -999 4.219768 33.389906 -1.152053
2005-10-17 14:48:23 51°16.653 2°49.809 -999 4.219768 33.389906 -1.152053
2005-10-17 14:49:23 51°16.659 2°49.811 -999 4.220287 33.386921 -1.185762
2005-10-17 14:50:23 51°16.651 2°49.803 -999 4.220909 33.382104 -1.152053
2005-10-17 14:51:23 51°16.636 2°49.793 -999 4.219561 33.383256 -1.152053
2005-10-17 14:52:24 51°16.666 2°49.807 -999 4.219146 33.383717 -1.152053
2005-10-17 14:53:23 51°16.704 2°49.835 -999 4.218731 33.384866 -1.152053
2005-10-17 14:54:24 51°16.663 2°49.849 -999 4.217798 33.381431 -1.152053
2005-10-17 14:55:23 51°16.513 2°49.989 -999 4.218109 33.382117 -1.152053
2005-10-17 14:56:23 51°16.378 2°50.233 -999 4.218627 33.366756 -1.152053
2005-10-17 14:57:23 51°16.322 2°50.554 -999 4.214168 33.345214 -1.152053
2005-10-17 14:58:23 51°16.291 2°50.894 -999 4.209398 33.307855 -1.152053
2005-10-17 14:59:23 51°16.28 2°51.237 -999 4.172896 33.026278 -1.152053
2005-10-17 15:00:23 51°16.274 2°51.58 -999 4.146974 32.84611 -1.152053
2005-10-17 15:01:23 51°16.266 2°51.922 -999 4.132458 32.74623 -1.152053
2005-10-17 15:02:23 51°16.255 2°52.263 -999 4.122504 32.669703 -1.152053
2005-10-17 15:03:23 51°16.243 2°52.606 -999 4.115039 32.612465 -1.152053
2005-10-17 15:04:23 51°16.231 2°52.95 -999 4.111618 32.582206 -1.118343
2005-10-17 15:05:23 51°16.201 2°53.29 -999 4.11141 32.574976 -1.118343
2005-10-17 15:06:23 51°16.159 2°53.625 -999 4.110685 32.56047 -1.152053
2005-10-17 15:07:23 51°16.186 2°53.953 -999 4.104567 32.506408 -1.152053
2005-10-17 15:08:23 51°16.219 2°54.201 -999 4.096377 32.428672 -1.118343
2005-10-17 15:09:23 51°16.254 2°54.303 -999 4.084558 32.356444 -1.118343
2005-10-17 15:10:24 51°16.259 2°54.303 -999 4.078027 32.316808 -1.118343
2005-10-17 15:11:23 51°16.262 2°54.299 -999 4.07585 32.306939 -1.118343
2005-10-17 15:12:23 51°16.265 2°54.295 -999 4.073777 32.300663 -1.118343
2005-10-17 15:13:23 51°16.269 2°54.288 -999 4.073777 32.297983 -1.118343
2005-10-17 15:14:23 51°16.274 2°54.28 -999 4.073362 32.296326 -1.118343
2005-10-17 15:15:23 51°16.297 2°54.218 -999 4.073155 32.294492 -1.118343
2005-10-17 15:16:23 51°16.221 2°54.104 -999 4.07388 32.30024 -1.118343
2005-10-17 15:17:23 51°16.028 2°54.117 -999 4.080515 32.332102 -1.118343
2005-10-17 15:18:24 51°15.814 2°54.136 -999 4.070459 32.29008 -1.084634
2005-10-17 15:19:23 51°15.607 2°54.147 -999 4.065587 32.276453 -1.118343
2005-10-17 15:20:23 51°15.398 2°54.159 -999 4.073156 32.35558 -1.118343
2005-10-17 15:21:23 51°15.19 2°54.183 -999 4.094202 32.538088 -1.118343
2005-10-17 15:22:23 51°15.006 2°54.311 -999 4.100526 32.611804 -1.118343
2005-10-17 15:23:23 51°14.83 2°54.478 -999 4.122092 32.780083 -1.118343
2005-10-17 15:24:23 51°14.66 2°54.665 -999 4.111931 32.687878 -1.118343
2005-10-17 15:25:23 51°14.493 2°54.849 -999 4.013237 31.847127 -1.084634
2005-10-17 15:26:23 51°14.36 2°55.074 -999 3.99344 31.704379 -1.050924
2005-10-17 15:27:23 51°14.232 2°55.299 -999 3.883892 30.794295 -1.017215
2005-10-17 15:28:23 51°14.094 2°55.424 -999 3.79447 30.036608 -1.050924
2005-10-17 15:29:23 51°13.963 2°55.52 -999 3.743394 29.57084 -1.050924
2005-10-17 15:30:23 51°13.835 2°55.619 -999 3.682069 28.986035 -1.050924
2005-10-17 15:31:23 51°13.732 2°55.741 -999 3.671917 28.852889 -1.050924
2005-10-17 15:32:23 51°13.672 2°55.864 -999 3.566381 27.843972 -1.084634
2005-10-17 15:33:23 51°13.631 2°55.971 -999 2.544794 18.298713 -0.376736
2005-10-17 15:34:23 51°13.612 2°56.054 -999 0.202658 1.169449 0.97164
2005-10-17 15:35:23 51°13.602 2°56.098 -999 0.078253 0.432898 -1.050924